Terminal Aerodrome Forecast
Issued by NWS

Home | Current Version | Previous Version | Graphics & Text | Print | Product List | Glossary On
Versions: 1 2 3 4 5 6 7 8 9 10 11 12 13 14 15 16 17 18 19
000
FTUS43 KGRB 140100 AAB
TAFATW
TAF AMD
KATW 140155Z 1402/1424 04015G25KT 3SM RA BR BKN008
     FM140600 36018G28KT 2SM -RASN OVC004
     FM140900 35018G28KT 1 1/2SM -SN OVC006
     FM141400 34020G30KT 4SM -SN BKN015
     FM141800 33017G27KT P6SM BKN030=

USA.gov is the U.S. government's official web portal to all federal, state and local government web resources and services.